Time;durP1;ratioP1;P1;durP2;ratioP2;P2;SDS_P1;SDS_P2;PMS_P1;PMS_P2;Temp;Humidity;BMP_temperature;BMP_pressure;BME280_temperature;BME280_humidity;BME280_pressure;Samples;Min_cycle;Max_cycle;Signal;HPM_P1;HPM_P2
2021/09/06 00:01:35;;;;;;;0.90;0.70;;;8.30;99.90;;;;;;5073742;28;20103;-69
2021/09/06 00:04:01;;;;;;;0.60;0.60;;;8.30;99.90;;;;;;5073689;28;20534;-69
2021/09/06 00:06:27;;;;;;;0.70;0.57;;;8.30;99.90;;;;;;5073660;28;20032;-69
2021/09/06 00:08:53;;;;;;;2.15;0.73;;;8.30;99.90;;;;;;5073238;28;20029;-69
2021/09/06 00:11:19;;;;;;;1.45;0.73;;;8.20;99.90;;;;;;5073260;28;20099;-69
2021/09/06 00:13:45;;;;;;;1.52;0.73;;;8.20;99.90;;;;;;5073203;28;20060;-69
2021/09/06 00:16:11;;;;;;;0.80;0.50;;;8.20;99.90;;;;;;5072882;28;20043;-69
2021/09/06 00:18:37;;;;;;;2.90;0.65;;;8.20;99.90;;;;;;5072523;28;20078;-69
2021/09/06 00:21:06;;;;;;;1.65;0.90;;;8.20;99.90;;;;;;5072735;28;20028;-69
2021/09/06 00:23:31;;;;;;;1.65;0.60;;;8.20;99.90;;;;;;5073018;28;20020;-69
2021/09/06 00:25:57;;;;;;;1.13;0.75;;;8.20;99.90;;;;;;5072745;28;20024;-69
2021/09/06 00:28:23;;;;;;;4.30;0.70;;;8.20;99.90;;;;;;5072911;28;20427;-69
2021/09/06 00:30:49;;;;;;;1.15;0.63;;;8.20;99.90;;;;;;5072996;28;20074;-69
2021/09/06 00:33:15;;;;;;;1.92;0.90;;;8.20;99.90;;;;;;5072614;28;20025;-69
2021/09/06 00:35:41;;;;;;;0.85;0.70;;;8.20;99.90;;;;;;5072627;28;20120;-70
2021/09/06 00:38:07;;;;;;;1.02;0.90;;;8.20;99.90;;;;;;5072804;28;20110;-69
2021/09/06 00:40:32;;;;;;;1.55;0.70;;;8.20;99.90;;;;;;5072917;28;20104;-69
2021/09/06 00:42:58;;;;;;;0.80;0.80;;;8.20;99.90;;;;;;5072801;28;20555;-69
2021/09/06 00:45:24;;;;;;;2.28;0.80;;;8.20;99.90;;;;;;5072515;28;20040;-69
2021/09/06 00:47:50;;;;;;;0.55;0.55;;;8.20;99.90;;;;;;5072791;28;20055;-69
2021/09/06 00:50:17;;;;;;;0.93;0.70;;;8.20;99.90;;;;;;5072330;28;20401;-69
2021/09/06 00:52:45;;;;;;;3.70;0.80;;;8.20;99.90;;;;;;5072293;28;20024;-69
2021/09/06 00:55:13;;;;;;;1.05;0.80;;;8.20;99.90;;;;;;5071997;28;20051;-69
2021/09/06 00:57:39;;;;;;;2.05;0.75;;;8.20;99.90;;;;;;5072233;28;20645;-69
2021/09/06 01:00:15;;;;;;;3.08;0.85;;;8.20;99.90;;;;;;5072484;28;20028;-69
2021/09/06 01:02:41;;;;;;;1.02;0.77;;;8.20;99.90;;;;;;5072225;28;20036;-69
2021/09/06 01:05:08;;;;;;;1.95;0.70;;;8.20;99.90;;;;;;5072426;28;20020;-69
2021/09/06 01:07:33;;;;;;;1.35;0.70;;;8.20;99.90;;;;;;5072102;28;20028;-69
2021/09/06 01:10:05;;;;;;;0.60;0.60;;;8.20;99.90;;;;;;5072362;28;20020;-69
2021/09/06 01:12:30;;;;;;;1.52;0.70;;;8.20;99.90;;;;;;5072113;28;20032;-68
2021/09/06 01:14:56;;;;;;;0.82;0.80;;;8.20;99.90;;;;;;5071957;28;20029;-69
2021/09/06 01:48:51;;;;;;;1.38;0.70;;;8.40;99.90;;;;;;5071591;28;20480;-69
2021/09/06 01:51:17;;;;;;;0.60;0.60;;;8.40;99.90;;;;;;5071899;28;20083;-69
2021/09/06 01:53:42;;;;;;;1.80;0.63;;;8.40;99.90;;;;;;5071928;28;20035;-69
2021/09/06 01:56:08;;;;;;;0.60;0.60;;;8.40;99.90;;;;;;5071369;28;20196;-69
2021/09/06 01:58:34;;;;;;;1.80;0.80;;;8.40;99.90;;;;;;5071681;28;20052;-69
2021/09/06 02:00:59;;;;;;;1.02;0.60;;;8.40;99.90;;;;;;5071729;28;20074;-70
2021/09/06 02:03:25;;;;;;;0.60;0.60;;;8.50;99.90;;;;;;5071647;28;20099;-70
2021/09/06 02:05:51;;;;;;;1.27;0.65;;;8.50;99.90;;;;;;5071726;28;20074;-70
2021/09/06 02:08:16;;;;;;;1.20;0.80;;;8.50;99.90;;;;;;5071601;28;20392;-70
2021/09/06 02:10:42;;;;;;;0.98;0.77;;;8.50;99.90;;;;;;5071507;28;20029;-69
2021/09/06 02:13:08;;;;;;;2.97;0.80;;;8.50;99.90;;;;;;5071507;28;20460;-69
2021/09/06 02:15:33;;;;;;;1.05;0.70;;;8.50;99.90;;;;;;5071471;28;20033;-69
2021/09/06 02:17:59;;;;;;;0.70;0.70;;;8.50;99.90;;;;;;5071547;28;20029;-69
2021/09/06 02:20:25;;;;;;;2.88;0.70;;;8.60;99.90;;;;;;5071814;28;20025;-69
2021/09/06 02:22:51;;;;;;;0.73;0.60;;;8.60;99.90;;;;;;5071224;28;20384;-69
2021/09/06 02:25:16;;;;;;;0.60;0.60;;;8.50;99.90;;;;;;5071440;28;20024;-69
2021/09/06 02:27:42;;;;;;;1.13;0.70;;;8.60;99.90;;;;;;5071310;28;20100;-69
2021/09/06 02:30:08;;;;;;;4.60;0.90;;;8.60;99.90;;;;;;5071644;28;20466;-69
2021/09/06 02:32:34;;;;;;;0.77;0.70;;;8.60;99.90;;;;;;5071361;28;20024;-70
2021/09/06 02:35:00;;;;;;;0.80;0.80;;;8.60;99.90;;;;;;5071517;28;20021;-73
2021/09/06 02:37:25;;;;;;;0.95;0.60;;;8.60;99.90;;;;;;5069864;28;20040;-74
2021/09/06 02:39:51;;;;;;;0.70;0.60;;;8.60;99.90;;;;;;5071177;28;20031;-74
2021/09/06 02:42:17;;;;;;;1.17;0.73;;;8.60;99.90;;;;;;5072303;28;20037;-74
2021/09/06 02:44:42;;;;;;;0.98;0.70;;;8.60;99.90;;;;;;5074779;28;20086;-74
2021/09/06 02:47:08;;;;;;;1.20;0.70;;;8.70;99.90;;;;;;5075067;28;20112;-75
2021/09/06 02:49:34;;;;;;;0.65;0.60;;;8.60;99.90;;;;;;5074941;28;20460;-75
2021/09/06 02:52:00;;;;;;;0.70;0.70;;;8.70;99.90;;;;;;5074650;28;20468;-75
2021/09/06 02:54:25;;;;;;;0.63;0.63;;;8.60;99.90;;;;;;5074832;28;20062;-75
2021/09/06 02:56:51;;;;;;;0.68;0.52;;;8.70;99.90;;;;;;5074465;28;20477;-75
2021/09/06 02:59:17;;;;;;;0.70;0.60;;;8.70;99.90;;;;;;5074964;28;20021;-75
2021/09/06 03:01:42;;;;;;;0.90;0.70;;;8.70;99.90;;;;;;5074395;28;20624;-74
2021/09/06 03:04:08;;;;;;;0.70;0.70;;;8.70;99.90;;;;;;5074539;28;20021;-74
2021/09/06 03:06:34;;;;;;;0.60;0.60;;;8.70;99.90;;;;;;5074463;28;20070;-75
2021/09/06 03:08:59;;;;;;;0.90;0.70;;;8.80;99.90;;;;;;5074342;28;20017;-73
2021/09/06 03:11:25;;;;;;;0.60;0.60;;;8.80;99.90;;;;;;5074358;28;20138;-73
2021/09/06 03:13:52;;;;;;;2.47;0.82;;;8.80;99.90;;;;;;5074462;28;20056;-74
2021/09/06 03:16:18;;;;;;;2.85;0.70;;;8.80;99.90;;;;;;5074504;28;20040;-74
2021/09/06 03:18:44;;;;;;;1.27;0.77;;;8.80;99.90;;;;;;5074254;28;20459;-74
2021/09/06 03:21:09;;;;;;;0.75;0.70;;;8.80;99.90;;;;;;5074171;28;20495;-74
2021/09/06 03:23:35;;;;;;;1.67;0.80;;;8.80;99.90;;;;;;5074493;28;20029;-74
2021/09/06 03:26:01;;;;;;;1.17;0.60;;;8.80;99.90;;;;;;5074284;28;20024;-74
2021/09/06 03:28:27;;;;;;;1.85;0.88;;;8.90;99.90;;;;;;5074087;28;20059;-74
2021/09/06 03:30:52;;;;;;;2.15;0.52;;;8.90;99.90;;;;;;5074188;28;20103;-74
2021/09/06 03:33:18;;;;;;;1.27;0.65;;;8.80;99.90;;;;;;5074318;28;20047;-74
2021/09/06 03:35:44;;;;;;;0.70;0.70;;;8.90;99.90;;;;;;5073997;28;20386;-74
2021/09/06 03:38:11;;;;;;;2.38;0.70;;;8.90;99.90;;;;;;5074104;28;20540;-75
2021/09/06 03:40:37;;;;;;;3.08;0.80;;;8.90;99.90;;;;;;5074117;28;20125;-75
2021/09/06 03:43:04;;;;;;;1.00;0.75;;;8.90;99.90;;;;;;5073627;28;20143;-75
2021/09/06 03:45:29;;;;;;;0.68;0.60;;;8.90;99.90;;;;;;5073728;28;20032;-74
2021/09/06 03:47:55;;;;;;;1.27;0.60;;;8.90;99.90;;;;;;5073808;28;20021;-74
2021/09/06 03:50:22;;;;;;;1.27;0.80;;;8.90;99.90;;;;;;5073545;28;20476;-75
2021/09/06 03:52:47;;;;;;;2.35;0.70;;;8.90;99.90;;;;;;5073476;28;20063;-74
2021/09/06 03:55:13;;;;;;;0.73;0.73;;;8.90;99.90;;;;;;5072287;28;20468;-74
2021/09/06 03:57:39;;;;;;;1.70;0.60;;;8.90;99.90;;;;;;5073474;28;20039;-73
2021/09/06 04:00:06;;;;;;;1.13;0.40;;;8.90;99.90;;;;;;5073446;28;20062;-73
2021/09/06 04:02:31;;;;;;;0.98;0.70;;;8.90;99.90;;;;;;5073357;28;20028;-74
2021/09/06 04:04:59;;;;;;;2.55;0.80;;;9.00;99.90;;;;;;5073619;28;20028;-74
2021/09/06 04:07:25;;;;;;;1.17;0.60;;;8.90;99.90;;;;;;5073325;28;20021;-74
2021/09/06 04:09:51;;;;;;;0.70;0.60;;;9.00;99.90;;;;;;5073469;28;20016;-74
2021/09/06 04:12:16;;;;;;;1.13;0.70;;;9.00;99.90;;;;;;5073186;28;20038;-74
2021/09/06 04:14:42;;;;;;;2.28;0.70;;;9.00;99.90;;;;;;5073048;28;20091;-74
2021/09/06 04:17:08;;;;;;;0.70;0.70;;;9.00;99.90;;;;;;5073186;28;20044;-74
2021/09/06 04:19:34;;;;;;;0.80;0.60;;;9.00;99.90;;;;;;5073148;28;20021;-74
2021/09/06 04:22:01;;;;;;;0.90;0.80;;;9.00;99.90;;;;;;5072805;28;20035;-73
2021/09/06 04:24:27;;;;;;;3.70;0.80;;;9.00;99.90;;;;;;5073362;28;20024;-73
2021/09/06 04:26:53;;;;;;;0.90;0.88;;;9.10;99.90;;;;;;5072920;28;20139;-75
2021/09/06 04:29:19;;;;;;;0.85;0.70;;;9.10;99.90;;;;;;5071620;28;20024;-72
2021/09/06 04:31:45;;;;;;;2.42;0.90;;;9.10;99.90;;;;;;5073014;28;20035;-69
2021/09/06 04:34:11;;;;;;;0.60;0.60;;;9.10;99.90;;;;;;5072579;28;20213;-70
2021/09/06 04:36:37;;;;;;;0.70;0.70;;;9.10;99.90;;;;;;5072637;28;20040;-72
2021/09/06 04:39:03;;;;;;;0.88;0.68;;;9.40;99.90;;;;;;5072536;28;20085;-71
2021/09/06 04:41:29;;;;;;;0.85;0.60;;;9.50;99.90;;;;;;5072419;28;20036;-70
2021/09/06 04:43:55;;;;;;;1.08;0.68;;;9.40;99.90;;;;;;5072613;28;20024;-68
2021/09/06 04:46:21;;;;;;;1.63;0.60;;;9.40;99.90;;;;;;5072390;28;20027;-69
2021/09/06 04:48:47;;;;;;;0.88;0.70;;;9.40;99.90;;;;;;5072286;28;20030;-70
2021/09/06 04:51:13;;;;;;;0.70;0.70;;;9.40;99.90;;;;;;5072289;28;20024;-71
2021/09/06 04:53:42;;;;;;;3.90;0.75;;;9.40;99.90;;;;;;5062986;28;20513;-72
2021/09/06 04:56:08;;;;;;;1.07;0.60;;;9.40;99.90;;;;;;5051692;28;20049;-70
2021/09/06 04:58:35;;;;;;;2.38;0.60;;;9.50;99.90;;;;;;5052145;28;20029;-70
2021/09/06 05:01:00;;;;;;;1.25;0.80;;;9.50;99.90;;;;;;5052330;28;20377;-70
2021/09/06 05:03:26;;;;;;;2.42;0.60;;;9.50;99.90;;;;;;5052126;28;20028;-71
2021/09/06 05:05:55;;;;;;;1.08;0.77;;;9.50;99.90;;;;;;5059482;28;20036;-68
2021/09/06 05:08:20;;;;;;;0.50;0.50;;;9.50;99.90;;;;;;5069190;28;20024;-68
2021/09/06 05:10:47;;;;;;;1.23;0.50;;;9.50;99.90;;;;;;5071960;28;20089;-68
2021/09/06 05:13:14;;;;;;;1.00;0.60;;;9.50;99.90;;;;;;5071948;28;20024;-68
2021/09/06 05:15:40;;;;;;;1.30;0.85;;;9.50;99.90;;;;;;5071802;28;20499;-69
2021/09/06 05:18:05;;;;;;;0.70;0.60;;;9.50;99.90;;;;;;5072016;28;20112;-69
2021/09/06 05:20:31;;;;;;;0.65;0.60;;;9.50;99.90;;;;;;5070620;28;20384;-69
2021/09/06 05:22:57;;;;;;;2.90;0.95;;;9.50;99.90;;;;;;5071179;28;20476;-69
2021/09/06 05:25:23;;;;;;;5.00;0.68;;;9.60;99.90;;;;;;5071318;28;20024;-70
2021/09/06 05:27:49;;;;;;;0.70;0.60;;;9.60;99.90;;;;;;5071395;28;20039;-70
2021/09/06 05:30:15;;;;;;;0.52;0.50;;;9.60;99.90;;;;;;5071595;28;20069;-71
2021/09/06 05:32:40;;;;;;;7.78;0.80;;;9.60;99.90;;;;;;5071944;28;20108;-73
2021/09/06 05:35:07;;;;;;;2.85;0.60;;;9.80;99.90;;;;;;5071608;28;20387;-76
2021/09/06 05:37:32;;;;;;;0.63;0.47;;;10.30;99.90;;;;;;5072012;28;20039;-76
2021/09/06 05:39:58;;;;;;;0.52;0.52;;;10.70;99.90;;;;;;5071857;28;20029;-76
2021/09/06 05:42:24;;;;;;;3.60;1.48;;;11.00;99.90;;;;;;5072112;28;20032;-76
2021/09/06 05:44:50;;;;;;;4.70;0.50;;;11.20;99.90;;;;;;5071707;28;20021;-76
2021/09/06 05:47:17;;;;;;;2.13;0.60;;;11.40;99.90;;;;;;5071530;28;20033;-76
2021/09/06 05:49:43;;;;;;;0.73;0.40;;;11.50;99.90;;;;;;5071613;28;20504;-76
2021/09/06 05:52:08;;;;;;;0.55;0.40;;;11.70;99.90;;;;;;5071464;28;20113;-76
2021/09/06 05:54:34;;;;;;;1.85;0.50;;;11.90;99.90;;;;;;5071705;28;20416;-76
2021/09/06 05:57:00;;;;;;;1.58;0.60;;;12.00;99.90;;;;;;5071659;28;20407;-76
2021/09/06 05:59:26;;;;;;;0.95;0.50;;;12.10;99.90;;;;;;5071760;28;20104;-79
2021/09/06 06:01:52;;;;;;;1.15;0.50;;;12.30;99.90;;;;;;5070459;28;20503;-74
2021/09/06 06:04:18;;;;;;;1.02;0.60;;;12.40;99.90;;;;;;5071069;28;20052;-75
2021/09/06 06:06:44;;;;;;;0.98;0.50;;;12.40;99.90;;;;;;5069155;28;20048;-74
2021/09/06 06:09:09;;;;;;;2.63;0.50;;;12.40;99.90;;;;;;5069282;28;20437;-76
2021/09/06 06:11:38;;;;;;;1.42;0.50;;;12.50;99.90;;;;;;5070601;28;20028;-72
2021/09/06 06:14:07;;;;;;;2.35;0.40;;;12.50;99.90;;;;;;5070800;28;20139;-70
2021/09/06 06:16:34;;;;;;;1.80;0.50;;;12.50;99.90;;;;;;5070359;28;20115;-79
2021/09/06 06:19:00;;;;;;;0.98;0.45;;;12.60;99.90;;;;;;5074347;28;20103;-75
2021/09/06 06:21:25;;;;;;;0.82;0.40;;;12.70;99.90;;;;;;5074633;28;20078;-72
2021/09/06 06:23:51;;;;;;;1.08;0.70;;;12.70;99.90;;;;;;5074494;28;20032;-78
2021/09/06 06:26:17;;;;;;;3.28;0.60;;;12.70;99.90;;;;;;5074876;28;20024;-77
2021/09/06 06:28:43;;;;;;;0.60;0.50;;;12.80;99.90;;;;;;5073254;28;20031;-74
2021/09/06 06:31:08;;;;;;;2.55;0.90;;;13.00;99.90;;;;;;5073723;28;20521;-74
2021/09/06 06:33:34;;;;;;;5.28;1.02;;;12.90;99.90;;;;;;5073074;28;20040;-75
2021/09/06 06:36:02;;;;;;;2.75;1.00;;;12.50;99.90;;;;;;5074252;28;20029;-76
2021/09/06 06:38:29;;;;;;;3.63;1.00;;;12.30;99.90;;;;;;5074330;28;20036;-76
2021/09/06 06:40:54;;;;;;;3.28;1.13;;;12.10;99.90;;;;;;5074385;28;20056;-66
2021/09/06 06:43:20;;;;;;;1.98;0.98;;;12.00;99.90;;;;;;5074531;28;20231;-70
2021/09/06 06:45:46;;;;;;;3.90;0.93;;;11.90;99.90;;;;;;5074234;28;20031;-70
2021/09/06 06:48:12;;;;;;;1.92;0.80;;;11.90;99.90;;;;;;5074800;28;20618;-69
2021/09/06 06:50:37;;;;;;;7.20;1.10;;;11.80;99.90;;;;;;5074694;28;20025;-71
2021/09/06 06:53:03;;;;;;;1.92;1.00;;;11.80;99.90;;;;;;5074332;28;20028;-72
2021/09/06 06:55:29;;;;;;;1.63;0.85;;;11.90;99.90;;;;;;5074212;28;20052;-69
2021/09/06 06:57:55;;;;;;;3.85;1.25;;;12.00;99.90;;;;;;5074328;28;20051;-73
2021/09/06 07:00:20;;;;;;;3.53;1.33;;;12.00;99.90;;;;;;5074370;28;20031;-72
2021/09/06 07:02:46;;;;;;;2.00;1.30;;;12.10;99.90;;;;;;5074289;28;20033;-71
2021/09/06 07:05:12;;;;;;;1.40;1.00;;;12.40;99.90;;;;;;5074361;28;20066;-71
2021/09/06 07:07:39;;;;;;;3.60;1.00;;;12.60;99.90;;;;;;5074364;28;20031;-70
2021/09/06 07:10:07;;;;;;;4.63;1.48;;;12.90;99.90;;;;;;5074533;28;20031;-69
2021/09/06 07:12:33;;;;;;;1.52;0.75;;;13.10;99.90;;;;;;5073993;28;20104;-69
2021/09/06 07:14:58;;;;;;;4.88;0.90;;;13.40;99.90;;;;;;5073147;28;20115;-70
2021/09/06 07:17:24;;;;;;;5.82;0.90;;;13.70;99.90;;;;;;5074187;28;20041;-69
2021/09/06 07:19:50;;;;;;;4.97;0.68;;;14.50;99.90;;;;;;5074216;28;20028;-69
2021/09/06 07:22:16;;;;;;;0.52;0.28;;;14.70;99.90;;;;;;5074049;28;20020;-70
2021/09/06 07:24:42;;;;;;;0.22;0.22;;;14.40;99.90;;;;;;5074307;28;20495;-69
2021/09/06 07:27:08;;;;;;;1.33;0.35;;;14.20;99.90;;;;;;5073850;28;20040;-69
2021/09/06 07:29:34;;;;;;;0.30;0.30;;;14.00;99.90;;;;;;5074154;28;20024;-69
2021/09/06 07:32:00;;;;;;;0.85;0.20;;;13.90;99.90;;;;;;5073860;28;20024;-70
2021/09/06 07:34:26;;;;;;;1.02;0.30;;;13.90;99.90;;;;;;5074215;28;20111;-75
2021/09/06 07:36:52;;;;;;;1.05;0.32;;;13.80;99.90;;;;;;5073636;28;20040;-69
2021/09/06 07:39:18;;;;;;;0.13;0.13;;;13.80;99.90;;;;;;5073601;28;20023;-67
2021/09/06 07:41:45;;;;;;;0.30;0.30;;;13.80;99.90;;;;;;5070278;28;20044;-68
2021/09/06 07:44:11;;;;;;;2.35;0.40;;;13.80;99.90;;;;;;5072845;28;20035;-68
2021/09/06 07:46:37;;;;;;;3.22;0.47;;;13.80;99.90;;;;;;5073600;28;20028;-67
2021/09/06 07:49:03;;;;;;;4.88;0.50;;;13.80;99.90;;;;;;5073350;28;20060;-72
2021/09/06 07:51:29;;;;;;;5.95;1.05;;;13.80;99.90;;;;;;5073636;28;20078;-76
2021/09/06 07:53:55;;;;;;;4.75;0.57;;;14.40;99.90;;;;;;5073733;28;20025;-77
2021/09/06 07:56:21;;;;;;;0.40;0.30;;;15.00;99.90;;;;;;5073214;28;20067;-72
2021/09/06 07:58:46;;;;;;;2.10;0.30;;;15.20;99.90;;;;;;5073388;28;20028;-71
2021/09/06 08:01:12;;;;;;;2.45;0.30;;;15.00;99.90;;;;;;5073083;28;20031;-71
2021/09/06 08:03:38;;;;;;;3.45;0.50;;;14.70;99.90;;;;;;5073067;28;20032;-70
2021/09/06 08:06:04;;;;;;;0.63;0.40;;;14.60;99.90;;;;;;5073254;28;20055;-70
2021/09/06 08:08:29;;;;;;;3.28;0.30;;;14.50;99.90;;;;;;5072920;28;20020;-72
2021/09/06 08:10:55;;;;;;;2.10;0.30;;;14.40;99.90;;;;;;5073143;28;20029;-72
2021/09/06 08:13:21;;;;;;;0.63;0.30;;;14.40;99.90;;;;;;5072841;28;20028;-72
2021/09/06 08:15:47;;;;;;;2.75;0.30;;;14.50;99.90;;;;;;5072868;28;20480;-73
2021/09/06 08:18:12;;;;;;;0.70;0.30;;;14.50;99.90;;;;;;5072803;28;20095;-71
2021/09/06 08:20:39;;;;;;;0.70;0.20;;;14.50;99.90;;;;;;5072860;28;20078;-71
2021/09/06 08:23:05;;;;;;;4.85;0.40;;;14.50;99.90;;;;;;5072652;28;20115;-68
2021/09/06 08:25:31;;;;;;;4.50;0.40;;;14.50;99.90;;;;;;5072772;28;20112;-72
2021/09/06 08:27:56;;;;;;;0.20;0.20;;;14.50;99.90;;;;;;5072755;28;20090;-69
2021/09/06 08:30:22;;;;;;;0.30;0.30;;;14.60;99.90;;;;;;5071744;28;20437;-69
2021/09/06 08:32:48;;;;;;;0.45;0.40;;;14.60;99.90;;;;;;5071632;28;20032;-69
2021/09/06 08:35:15;;;;;;;0.47;0.20;;;14.70;99.90;;;;;;5072984;28;20017;-69
2021/09/06 08:37:42;;;;;;;4.40;0.47;;;14.70;99.90;;;;;;5067261;28;20134;-72
2021/09/06 08:40:10;;;;;;;0.63;0.20;;;14.70;99.90;;;;;;5070215;28;20028;-70
2021/09/06 08:42:38;;;;;;;0.22;0.13;;;14.80;99.90;;;;;;5072584;28;20032;-70
2021/09/06 08:45:06;;;;;;;3.30;0.40;;;14.80;99.90;;;;;;5072193;28;20035;-70
2021/09/06 08:47:32;;;;;;;0.20;0.20;;;14.80;99.90;;;;;;5071646;28;20039;-70
2021/09/06 08:49:58;;;;;;;1.38;0.30;;;14.90;99.90;;;;;;5071121;28;20025;-69
2021/09/06 08:52:24;;;;;;;2.13;0.20;;;14.90;99.90;;;;;;5072305;28;20028;-70
2021/09/06 08:54:50;;;;;;;1.15;0.22;;;15.00;99.90;;;;;;5071986;28;20148;-71
2021/09/06 08:57:16;;;;;;;0.40;0.20;;;15.00;99.90;;;;;;5071840;28;20086;-71
2021/09/06 08:59:44;;;;;;;0.65;0.20;;;15.10;99.90;;;;;;5072561;28;20181;-71
2021/09/06 09:02:11;;;;;;;0.28;0.20;;;15.10;99.90;;;;;;5072051;28;20016;-70
2021/09/06 09:04:37;;;;;;;0.38;0.20;;;15.20;99.90;;;;;;5072052;28;20035;-70
2021/09/06 09:07:04;;;;;;;0.40;0.20;;;15.20;99.90;;;;;;5072078;28;20111;-70
2021/09/06 09:09:32;;;;;;;0.77;0.20;;;15.30;99.90;;;;;;5072483;28;20055;-70
2021/09/06 09:12:08;;;;;;;0.80;0.20;;;15.30;99.90;;;;;;5072099;28;20056;-70
2021/09/06 09:14:37;;;;;;;0.32;0.20;;;15.30;99.90;;;;;;5072447;28;20031;-70
2021/09/06 09:17:03;;;;;;;0.30;0.15;;;15.40;99.90;;;;;;5072182;28;20040;-71
2021/09/06 09:19:29;;;;;;;0.20;0.20;;;15.50;99.90;;;;;;5072085;28;20028;-69
2021/09/06 09:21:58;;;;;;;0.88;0.28;;;15.60;99.90;;;;;;5071914;28;20025;-69
2021/09/06 09:24:24;;;;;;;0.30;0.30;;;15.60;99.90;;;;;;5071774;28;20388;-68
2021/09/06 09:26:59;;;;;;;0.30;0.20;;;15.60;99.90;;;;;;5072282;28;20103;-68
2021/09/06 09:29:25;;;;;;;0.75;0.20;;;15.60;99.90;;;;;;5069823;28;20027;-69
2021/09/06 09:31:53;;;;;;;0.10;0.10;;;15.70;99.60;;;;;;5071335;28;20052;-69
2021/09/06 09:34:19;;;;;;;0.68;0.20;;;15.70;99.30;;;;;;5071875;28;20063;-70
2021/09/06 09:36:45;;;;;;;0.10;0.10;;;15.80;98.30;;;;;;5072041;28;20044;-75
2021/09/06 09:39:18;;;;;;;0.20;0.20;;;15.80;98.30;;;;;;5069712;28;20021;-74
2021/09/06 09:41:49;;;;;;;0.20;0.20;;;15.80;98.20;;;;;;5071431;28;20024;-74
2021/09/06 09:44:21;;;;;;;0.20;0.15;;;15.80;97.30;;;;;;5071711;28;20106;-74
2021/09/06 09:47:01;;;;;;;0.10;0.10;;;15.90;97.60;;;;;;5072005;28;20020;-74
2021/09/06 09:49:30;;;;;;;0.10;0.10;;;15.90;98.10;;;;;;5071598;28;20021;-74
2021/09/06 09:51:56;;;;;;;2.33;0.20;;;16.00;98.00;;;;;;5071949;28;20028;-74
2021/09/06 09:54:22;;;;;;;0.30;0.10;;;16.00;97.70;;;;;;5075453;28;20044;-74
2021/09/06 09:56:49;;;;;;;9.63;0.60;;;16.00;97.40;;;;;;5076071;28;20097;-74
2021/09/06 09:59:17;;;;;;;5.32;0.40;;;16.10;97.60;;;;;;5075731;28;20109;-74
2021/09/06 10:01:44;;;;;;;0.28;0.20;;;16.20;97.10;;;;;;5075638;28;20024;-73
2021/09/06 10:04:13;;;;;;;0.10;0.10;;;16.30;96.80;;;;;;5075520;28;20024;-74
2021/09/06 10:06:41;;;;;;;0.10;0.10;;;16.40;97.10;;;;;;5075934;28;20040;-74
2021/09/06 10:09:07;;;;;;;3.83;0.32;;;16.40;96.10;;;;;;5075517;28;20513;-74
2021/09/06 10:11:41;;;;;;;1.55;0.10;;;16.40;95.50;;;;;;5075436;28;20415;-74
2021/09/06 10:14:17;;;;;;;0.35;0.10;;;16.40;94.70;;;;;;5075291;28;20017;-74
2021/09/06 10:16:45;;;;;;;0.10;0.10;;;16.40;94.70;;;;;;5075336;28;20025;-74
2021/09/06 10:19:11;;;;;;;0.40;0.08;;;16.40;93.60;;;;;;5075383;28;20032;-74
2021/09/06 10:21:44;;;;;;;1.48;0.10;;;16.40;93.20;;;;;;5073938;28;20507;-73
2021/09/06 10:24:18;;;;;;;0.47;0.10;;;16.40;92.80;;;;;;5074831;28;20029;-74
2021/09/06 10:26:44;;;;;;;0.10;0.10;;;16.40;93.10;;;;;;5075200;28;20103;-73
2021/09/06 10:29:14;;;;;;;0.30;0.20;;;16.40;92.70;;;;;;5075164;28;20407;-73
2021/09/06 10:31:40;;;;;;;0.28;0.10;;;16.40;92.70;;;;;;5075064;28;20017;-76
2021/09/06 10:34:08;;;;;;;0.00;0.00;;;16.40;91.90;;;;;;5075214;28;20028;-75
2021/09/06 10:36:34;;;;;;;5.60;0.40;;;16.40;91.30;;;;;;5074891;28;20036;-75
2021/09/06 10:39:02;;;;;;;1.00;0.10;;;16.40;91.30;;;;;;5075057;28;20020;-76
2021/09/06 10:41:28;;;;;;;0.52;0.13;;;16.40;91.40;;;;;;5074677;28;20021;-75
2021/09/06 10:43:59;;;;;;;1.88;0.13;;;16.40;90.60;;;;;;5075113;28;20021;-75
2021/09/06 10:46:27;;;;;;;0.15;0.10;;;16.60;91.30;;;;;;5074822;28;20391;-73
2021/09/06 10:48:53;;;;;;;0.10;0.10;;;16.60;90.20;;;;;;5074958;28;20021;-74
2021/09/06 10:51:37;;;;;;;0.03;0.03;;;16.60;90.90;;;;;;5074538;28;20021;-70
2021/09/06 10:54:07;;;;;;;0.30;0.10;;;16.50;90.50;;;;;;5074514;28;20017;-73
2021/09/06 10:56:33;;;;;;;;;;;16.50;90.20;;;;;;5075324;28;20072;-73
2021/09/06 10:59:01;;;;;;;0.10;0.10;;;16.50;89.30;;;;;;5077004;28;19905;-73
2021/09/06 11:01:26;;;;;;;0.40;0.10;;;16.50;90.10;;;;;;5074622;28;20020;-73
2021/09/06 11:03:53;;;;;;;0.22;0.10;;;16.50;90.40;;;;;;5074079;28;20379;-73
2021/09/06 11:06:20;;;;;;;2.05;0.22;;;16.50;90.10;;;;;;5074278;28;20017;-73
2021/09/06 11:08:46;;;;;;;0.10;0.10;;;16.50;90.00;;;;;;5074318;28;20119;-73
2021/09/06 11:11:12;;;;;;;0.32;0.10;;;16.50;90.30;;;;;;5074296;28;20142;-73
2021/09/06 11:13:41;;;;;;;0.10;0.10;;;16.50;90.70;;;;;;5074621;28;20357;-73
2021/09/06 11:16:09;;;;;;;1.85;0.52;;;16.50;90.70;;;;;;5074372;28;20051;-73
2021/09/06 11:18:37;;;;;;;4.30;0.30;;;16.50;90.50;;;;;;5073925;28;20026;-73
2021/09/06 11:21:04;;;;;;;1.75;0.10;;;16.60;90.60;;;;;;5074566;28;20028;-73
2021/09/06 11:23:34;;;;;;;2.75;0.10;;;16.60;91.00;;;;;;5074381;28;20029;-73
2021/09/06 11:26:01;;;;;;;0.10;0.10;;;16.70;90.30;;;;;;5074269;28;20070;-73
2021/09/06 11:28:26;;;;;;;9.93;0.30;;;16.70;90.30;;;;;;5074270;28;20114;-73
2021/09/06 11:30:52;;;;;;;2.38;0.10;;;16.70;89.70;;;;;;5074188;28;20380;-73
2021/09/06 11:33:18;;;;;;;0.10;0.10;;;16.70;89.80;;;;;;5073810;28;20032;-73
2021/09/06 11:35:46;;;;;;;0.15;0.10;;;16.70;89.90;;;;;;5072558;28;20119;-73
2021/09/06 11:38:14;;;;;;;1.65;0.10;;;16.70;89.70;;;;;;5073723;28;20025;-73
2021/09/06 11:40:42;;;;;;;1.55;0.10;;;16.80;88.70;;;;;;5074169;28;20031;-73
2021/09/06 11:43:09;;;;;;;8.10;0.22;;;16.70;88.90;;;;;;5073817;28;20033;-73
2021/09/06 11:45:35;;;;;;;0.82;0.17;;;16.80;88.60;;;;;;5073971;28;20021;-73
2021/09/06 11:48:07;;;;;;;0.52;0.20;;;16.80;89.80;;;;;;5073810;28;20095;-73
2021/09/06 11:50:36;;;;;;;0.40;0.10;;;16.80;88.50;;;;;;5073559;28;20104;-73
2021/09/06 11:53:07;;;;;;;2.17;0.13;;;16.80;87.70;;;;;;5073713;28;20028;-73
2021/09/06 11:55:33;;;;;;;0.98;0.20;;;16.80;87.80;;;;;;5073208;28;20083;-77
2021/09/06 11:58:13;;;;;;;0.17;0.10;;;16.80;88.60;;;;;;5073272;28;20032;-72
2021/09/06 12:00:41;;;;;;;0.83;0.10;;;16.80;87.70;;;;;;5073403;28;20538;-72
2021/09/06 12:03:08;;;;;;;0.35;0.20;;;16.80;88.20;;;;;;5073492;28;20021;-72
2021/09/06 12:05:39;;;;;;;0.98;0.10;;;16.80;87.80;;;;;;5073467;28;20104;-72
2021/09/06 12:08:13;;;;;;;0.65;0.15;;;16.70;87.80;;;;;;5073412;28;20035;-72
2021/09/06 12:10:41;;;;;;;0.00;0.00;;;16.70;87.40;;;;;;5073445;28;20028;-72
2021/09/06 12:13:08;;;;;;;0.10;0.10;;;16.70;86.60;;;;;;5073040;28;20029;-72
2021/09/06 12:15:50;;;;;;;1.48;0.15;;;16.60;86.70;;;;;;5072421;28;20115;-72
2021/09/06 12:18:17;;;;;;;1.55;0.20;;;16.60;87.50;;;;;;5072901;28;20032;-72
2021/09/06 12:20:44;;;;;;;4.28;0.40;;;16.60;87.80;;;;;;5072809;28;20031;-72
2021/09/06 12:23:13;;;;;;;1.65;0.15;;;16.60;87.90;;;;;;5072615;28;20615;-72
2021/09/06 12:25:41;;;;;;;0.67;0.20;;;16.60;88.00;;;;;;5073231;28;20033;-72
2021/09/06 12:28:08;;;;;;;1.10;0.20;;;16.60;90.00;;;;;;5073328;28;20544;-72
2021/09/06 12:30:34;;;;;;;0.22;0.20;;;16.70;88.20;;;;;;5072781;28;20055;-68
2021/09/06 12:33:00;;;;;;;0.20;0.20;;;16.70;88.30;;;;;;5073081;28;20048;-68
2021/09/06 12:35:26;;;;;;;2.53;0.20;;;16.60;88.10;;;;;;5072707;28;20456;-72
2021/09/06 12:37:52;;;;;;;1.85;0.30;;;16.60;87.60;;;;;;5072771;28;20075;-72
2021/09/06 12:40:18;;;;;;;0.52;0.20;;;16.60;87.20;;;;;;5072449;28;20021;-73
2021/09/06 12:42:48;;;;;;;1.60;0.30;;;16.50;87.10;;;;;;5072960;28;20039;-74
2021/09/06 12:45:14;;;;;;;12.52;0.28;;;16.50;87.80;;;;;;5071231;28;20055;-75
2021/09/06 12:47:40;;;;;;;0.20;0.20;;;16.50;86.70;;;;;;5072927;28;20396;-75
2021/09/06 12:50:06;;;;;;;1.10;0.38;;;16.50;86.60;;;;;;5072534;28;20032;-73
2021/09/06 12:52:32;;;;;;;0.10;0.10;;;16.40;87.00;;;;;;5072765;28;20025;-73
2021/09/06 12:54:58;;;;;;;1.10;0.20;;;16.50;86.80;;;;;;5072295;28;20055;-75
2021/09/06 12:57:23;;;;;;;2.13;0.30;;;16.40;87.50;;;;;;5072318;28;20488;-74
2021/09/06 12:59:49;;;;;;;0.65;0.20;;;16.40;86.60;;;;;;5072615;28;20050;-75
2021/09/06 13:02:15;;;;;;;1.10;0.20;;;16.40;86.90;;;;;;5072400;28;20055;-77
2021/09/06 13:04:40;;;;;;;0.60;0.17;;;16.40;86.10;;;;;;5070983;28;20025;-76
2021/09/06 13:07:06;;;;;;;1.38;0.20;;;16.40;86.90;;;;;;5072483;28;20035;-76
2021/09/06 13:09:32;;;;;;;2.72;0.35;;;16.40;87.50;;;;;;5071914;28;20561;-72
2021/09/06 13:11:58;;;;;;;0.30;0.20;;;16.40;87.80;;;;;;5072081;28;20024;-72
2021/09/06 13:14:25;;;;;;;0.52;0.30;;;16.30;86.90;;;;;;5071800;28;20024;-71
2021/09/06 13:16:51;;;;;;;1.00;0.20;;;16.30;87.20;;;;;;5072129;28;20040;-80
2021/09/06 13:19:17;;;;;;;0.93;0.20;;;16.30;87.70;;;;;;5071837;28;20029;-80